sensor_id;sensor_type;location;lat;lon;timestamp;temperature;humidity
45489;DHT22;31236;55.026;61.042;2023-09-12T00:01:59;11.20;99.90
45489;DHT22;31236;55.026;61.042;2023-09-12T00:04:29;11.20;99.90
45489;DHT22;31236;55.026;61.042;2023-09-12T00:06:59;11.20;99.90
45489;DHT22;31236;55.026;61.042;2023-09-12T00:09:30;11.20;99.90
45489;DHT22;31236;55.026;61.042;2023-09-12T00:12:00;11.20;99.90
45489;DHT22;31236;55.026;61.042;2023-09-12T00:14:31;11.20;99.90
45489;DHT22;31236;55.026;61.042;2023-09-12T00:20:11;11.10;99.90
45489;DHT22;31236;55.026;61.042;2023-09-12T00:22:45;11.10;99.90
45489;DHT22;31236;55.026;61.042;2023-09-12T00:25:16;11.10;99.90
45489;DHT22;31236;55.026;61.042;2023-09-12T00:27:47;11.10;99.90
45489;DHT22;31236;55.026;61.042;2023-09-12T00:30:17;11.10;99.90
45489;DHT22;31236;55.026;61.042;2023-09-12T00:32:48;11.10;99.90
45489;DHT22;31236;55.026;61.042;2023-09-12T00:38:48;11.00;99.90
45489;DHT22;31236;55.026;61.042;2023-09-12T00:41:18;11.00;99.90
45489;DHT22;31236;55.026;61.042;2023-09-12T00:43:48;11.00;99.90
45489;DHT22;31236;55.026;61.042;2023-09-12T00:46:19;11.00;99.90
45489;DHT22;31236;55.026;61.042;2023-09-12T00:48:53;10.90;99.90
45489;DHT22;31236;55.026;61.042;2023-09-12T00:51:24;10.90;99.90
45489;DHT22;31236;55.026;61.042;2023-09-12T00:53:59;10.90;99.90
45489;DHT22;31236;55.026;61.042;2023-09-12T00:56:29;10.90;99.90
45489;DHT22;31236;55.026;61.042;2023-09-12T01:02:10;10.80;99.90
45489;DHT22;31236;55.026;61.042;2023-09-12T01:31:25;10.30;99.90
45489;DHT22;31236;55.026;61.042;2023-09-12T01:33:57;10.30;99.90
45489;DHT22;31236;55.026;61.042;2023-09-12T01:39:39;10.30;99.90
45489;DHT22;31236;55.026;61.042;2023-09-12T01:44:44;10.30;99.90
45489;DHT22;31236;55.026;61.042;2023-09-12T01:49:49;10.30;99.90
45489;DHT22;31236;55.026;61.042;2023-09-12T01:52:21;10.30;99.90
45489;DHT22;31236;55.026;61.042;2023-09-12T01:54:53;10.30;99.90
45489;DHT22;31236;55.026;61.042;2023-09-12T01:57:24;10.30;99.90
45489;DHT22;31236;55.026;61.042;2023-09-12T01:59:55;10.30;99.90
45489;DHT22;31236;55.026;61.042;2023-09-12T02:02:25;10.30;99.90
45489;DHT22;31236;55.026;61.042;2023-09-12T02:11:38;10.30;99.90
45489;DHT22;31236;55.026;61.042;2023-09-12T02:14:09;10.30;99.90
45489;DHT22;31236;55.026;61.042;2023-09-12T02:16:39;10.30;99.90
45489;DHT22;31236;55.026;61.042;2023-09-12T02:21:42;10.40;99.90
45489;DHT22;31236;55.026;61.042;2023-09-12T02:24:51;10.40;99.90
45489;DHT22;31236;55.026;61.042;2023-09-12T02:27:21;10.40;99.90
45489;DHT22;31236;55.026;61.042;2023-09-12T02:30:25;10.40;99.90
45489;DHT22;31236;55.026;61.042;2023-09-12T02:32:45;10.40;99.90
45489;DHT22;31236;55.026;61.042;2023-09-12T02:35:15;10.50;99.90
45489;DHT22;31236;55.026;61.042;2023-09-12T02:37:47;10.50;99.90
45489;DHT22;31236;55.026;61.042;2023-09-12T02:40:18;10.50;99.90
45489;DHT22;31236;55.026;61.042;2023-09-12T02:42:48;10.50;99.90
45489;DHT22;31236;55.026;61.042;2023-09-12T02:45:19;10.60;99.90
45489;DHT22;31236;55.026;61.042;2023-09-12T02:47:49;10.60;99.90
45489;DHT22;31236;55.026;61.042;2023-09-12T02:50:21;10.60;99.90
45489;DHT22;31236;55.026;61.042;2023-09-12T02:52:51;10.60;99.90
45489;DHT22;31236;55.026;61.042;2023-09-12T02:55:21;10.60;99.90
45489;DHT22;31236;55.026;61.042;2023-09-12T02:57:51;10.60;99.90
45489;DHT22;31236;55.026;61.042;2023-09-12T03:00:21;10.60;99.90
45489;DHT22;31236;55.026;61.042;2023-09-12T03:02:51;10.70;99.90
45489;DHT22;31236;55.026;61.042;2023-09-12T03:05:41;10.70;99.90
45489;DHT22;31236;55.026;61.042;2023-09-12T03:08:12;10.80;99.90
45489;DHT22;31236;55.026;61.042;2023-09-12T03:13:15;10.90;99.90
45489;DHT22;31236;55.026;61.042;2023-09-12T03:15:45;10.90;99.90
45489;DHT22;31236;55.026;61.042;2023-09-12T03:18:17;11.00;99.90
45489;DHT22;31236;55.026;61.042;2023-09-12T03:33:14;11.20;99.90
45489;DHT22;31236;55.026;61.042;2023-09-12T03:35:44;11.20;99.90
45489;DHT22;31236;55.026;61.042;2023-09-12T03:38:16;11.30;99.90
45489;DHT22;31236;55.026;61.042;2023-09-12T03:40:46;11.30;99.90
45489;DHT22;31236;55.026;61.042;2023-09-12T03:43:18;11.40;99.90
45489;DHT22;31236;55.026;61.042;2023-09-12T03:45:48;11.40;99.90
45489;DHT22;31236;55.026;61.042;2023-09-12T03:48:18;11.50;99.90
45489;DHT22;31236;55.026;61.042;2023-09-12T03:50:48;11.60;99.90
45489;DHT22;31236;55.026;61.042;2023-09-12T03:53:18;11.70;99.90
45489;DHT22;31236;55.026;61.042;2023-09-12T03:59:38;11.90;99.90
45489;DHT22;31236;55.026;61.042;2023-09-12T04:02:10;11.90;99.80
45489;DHT22;31236;55.026;61.042;2023-09-12T04:04:40;11.90;99.90
45489;DHT22;31236;55.026;61.042;2023-09-12T04:07:10;12.00;99.90
45489;DHT22;31236;55.026;61.042;2023-09-12T04:27:05;12.50;99.20
45489;DHT22;31236;55.026;61.042;2023-09-12T04:29:35;12.60;99.10
45489;DHT22;31236;55.026;61.042;2023-09-12T04:32:06;12.70;99.10
45489;DHT22;31236;55.026;61.042;2023-09-12T04:34:36;12.90;99.20
45489;DHT22;31236;55.026;61.042;2023-09-12T04:37:06;13.00;99.10
45489;DHT22;31236;55.026;61.042;2023-09-12T04:39:38;13.00;98.90
45489;DHT22;31236;55.026;61.042;2023-09-12T04:42:08;13.10;98.90
45489;DHT22;31236;55.026;61.042;2023-09-12T04:44:40;13.20;98.90
45489;DHT22;31236;55.026;61.042;2023-09-12T04:47:11;13.30;98.80
45489;DHT22;31236;55.026;61.042;2023-09-12T04:49:43;13.40;98.60
45489;DHT22;31236;55.026;61.042;2023-09-12T04:52:13;13.50;98.50
45489;DHT22;31236;55.026;61.042;2023-09-12T04:54:43;13.60;98.50
45489;DHT22;31236;55.026;61.042;2023-09-12T04:57:14;13.70;98.30
45489;DHT22;31236;55.026;61.042;2023-09-12T04:59:44;13.80;98.20
45489;DHT22;31236;55.026;61.042;2023-09-12T05:02:14;13.90;98.10
45489;DHT22;31236;55.026;61.042;2023-09-12T05:04:44;14.00;97.90
45489;DHT22;31236;55.026;61.042;2023-09-12T05:07:14;14.10;97.90
45489;DHT22;31236;55.026;61.042;2023-09-12T05:09:46;14.10;97.70
45489;DHT22;31236;55.026;61.042;2023-09-12T05:12:16;14.20;97.60
45489;DHT22;31236;55.026;61.042;2023-09-12T05:14:46;14.30;97.50
45489;DHT22;31236;55.026;61.042;2023-09-12T05:17:16;14.30;97.30
45489;DHT22;31236;55.026;61.042;2023-09-12T05:19:45;14.30;97.20
45489;DHT22;31236;55.026;61.042;2023-09-12T05:22:15;14.30;97.10
45489;DHT22;31236;55.026;61.042;2023-09-12T05:24:45;14.40;97.00
45489;DHT22;31236;55.026;61.042;2023-09-12T05:27:17;14.50;96.80
45489;DHT22;31236;55.026;61.042;2023-09-12T05:29:47;14.60;96.80
45489;DHT22;31236;55.026;61.042;2023-09-12T05:32:17;14.70;96.70
45489;DHT22;31236;55.026;61.042;2023-09-12T05:34:47;14.80;96.50
45489;DHT22;31236;55.026;61.042;2023-09-12T05:37:17;14.80;96.40
45489;DHT22;31236;55.026;61.042;2023-09-12T05:39:47;14.80;96.30
45489;DHT22;31236;55.026;61.042;2023-09-12T05:42:17;14.90;96.20
45489;DHT22;31236;55.026;61.042;2023-09-12T05:44:49;14.90;96.00
45489;DHT22;31236;55.026;61.042;2023-09-12T05:47:21;15.00;95.80
45489;DHT22;31236;55.026;61.042;2023-09-12T05:49:52;15.00;95.70
45489;DHT22;31236;55.026;61.042;2023-09-12T05:52:22;15.00;95.50
45489;DHT22;31236;55.026;61.042;2023-09-12T05:54:52;15.10;95.50
45489;DHT22;31236;55.026;61.042;2023-09-12T05:57:22;15.10;95.20
45489;DHT22;31236;55.026;61.042;2023-09-12T05:59:52;15.20;95.10
45489;DHT22;31236;55.026;61.042;2023-09-12T06:02:22;15.10;94.70
45489;DHT22;31236;55.026;61.042;2023-09-12T06:04:52;15.20;94.70
45489;DHT22;31236;55.026;61.042;2023-09-12T06:07:23;15.20;94.50
45489;DHT22;31236;55.026;61.042;2023-09-12T06:09:53;15.30;94.50
45489;DHT22;31236;55.026;61.042;2023-09-12T06:12:23;15.40;94.20
45489;DHT22;31236;55.026;61.042;2023-09-12T06:14:53;15.50;94.10
45489;DHT22;31236;55.026;61.042;2023-09-12T06:17:23;15.60;93.90
45489;DHT22;31236;55.026;61.042;2023-09-12T06:19:54;15.60;93.70
45489;DHT22;31236;55.026;61.042;2023-09-12T06:22:25;15.60;93.60
45489;DHT22;31236;55.026;61.042;2023-09-12T06:24:55;15.70;93.60
45489;DHT22;31236;55.026;61.042;2023-09-12T06:27:24;15.70;93.30
45489;DHT22;31236;55.026;61.042;2023-09-12T06:29:54;15.60;93.20
45489;DHT22;31236;55.026;61.042;2023-09-12T06:32:24;15.60;93.20
45489;DHT22;31236;55.026;61.042;2023-09-12T06:34:55;15.60;93.10
45489;DHT22;31236;55.026;61.042;2023-09-12T06:37:24;15.70;92.90
45489;DHT22;31236;55.026;61.042;2023-09-12T06:39:54;15.60;92.70
45489;DHT22;31236;55.026;61.042;2023-09-12T06:42:24;15.70;92.70
45489;DHT22;31236;55.026;61.042;2023-09-12T06:44:54;15.70;92.60
45489;DHT22;31236;55.026;61.042;2023-09-12T06:47:25;15.80;92.40
45489;DHT22;31236;55.026;61.042;2023-09-12T06:49:54;15.80;92.30
45489;DHT22;31236;55.026;61.042;2023-09-12T06:52:25;15.80;92.10
45489;DHT22;31236;55.026;61.042;2023-09-12T06:54:54;15.80;92.00
45489;DHT22;31236;55.026;61.042;2023-09-12T06:57:25;15.80;91.90
45489;DHT22;31236;55.026;61.042;2023-09-12T06:59:56;15.80;91.90
45489;DHT22;31236;55.026;61.042;2023-09-12T07:02:27;15.70;91.90
45489;DHT22;31236;55.026;61.042;2023-09-12T07:04:57;15.70;91.90
45489;DHT22;31236;55.026;61.042;2023-09-12T07:07:27;15.70;91.90
45489;DHT22;31236;55.026;61.042;2023-09-12T07:09:58;15.70;91.70
45489;DHT22;31236;55.026;61.042;2023-09-12T07:12:28;15.60;91.70
45489;DHT22;31236;55.026;61.042;2023-09-12T07:15:00;15.60;91.60
45489;DHT22;31236;55.026;61.042;2023-09-12T07:17:31;15.60;91.60
45489;DHT22;31236;55.026;61.042;2023-09-12T07:20:02;15.60;91.50
45489;DHT22;31236;55.026;61.042;2023-09-12T07:22:34;15.50;91.30
45489;DHT22;31236;55.026;61.042;2023-09-12T07:25:05;15.40;91.40
45489;DHT22;31236;55.026;61.042;2023-09-12T07:27:37;15.40;91.50
45489;DHT22;31236;55.026;61.042;2023-09-12T07:30:08;15.40;91.50
45489;DHT22;31236;55.026;61.042;2023-09-12T07:32:38;15.40;91.40
45489;DHT22;31236;55.026;61.042;2023-09-12T07:35:08;15.50;91.50
45489;DHT22;31236;55.026;61.042;2023-09-12T07:37:39;15.50;91.30
45489;DHT22;31236;55.026;61.042;2023-09-12T07:40:10;15.60;91.30
45489;DHT22;31236;55.026;61.042;2023-09-12T07:42:40;15.60;91.20
45489;DHT22;31236;55.026;61.042;2023-09-12T07:45:10;15.70;91.10
45489;DHT22;31236;55.026;61.042;2023-09-12T07:47:40;15.70;91.00
45489;DHT22;31236;55.026;61.042;2023-09-12T07:50:11;15.70;91.00
45489;DHT22;31236;55.026;61.042;2023-09-12T07:52:41;15.70;91.00
45489;DHT22;31236;55.026;61.042;2023-09-12T07:55:11;15.90;90.90
45489;DHT22;31236;55.026;61.042;2023-09-12T07:57:41;16.00;90.60
45489;DHT22;31236;55.026;61.042;2023-09-12T08:00:12;16.10;90.50
45489;DHT22;31236;55.026;61.042;2023-09-12T08:02:43;16.00;90.30
45489;DHT22;31236;55.026;61.042;2023-09-12T08:05:13;15.80;90.30
45489;DHT22;31236;55.026;61.042;2023-09-12T08:07:43;15.70;90.40
45489;DHT22;31236;55.026;61.042;2023-09-12T08:10:13;15.90;90.50
45489;DHT22;31236;55.026;61.042;2023-09-12T08:12:43;16.00;90.40
45489;DHT22;31236;55.026;61.042;2023-09-12T08:15:13;16.30;90.20
45489;DHT22;31236;55.026;61.042;2023-09-12T08:17:43;16.50;90.00
45489;DHT22;31236;55.026;61.042;2023-09-12T08:20:15;16.50;89.80
45489;DHT22;31236;55.026;61.042;2023-09-12T08:22:45;16.30;89.60
45489;DHT22;31236;55.026;61.042;2023-09-12T08:25:16;16.20;89.60
45489;DHT22;31236;55.026;61.042;2023-09-12T08:27:47;16.30;89.70
45489;DHT22;31236;55.026;61.042;2023-09-12T08:30:17;16.30;89.10
45489;DHT22;31236;55.026;61.042;2023-09-12T08:32:47;16.20;88.90
45489;DHT22;31236;55.026;61.042;2023-09-12T08:35:18;16.20;89.20
45489;DHT22;31236;55.026;61.042;2023-09-12T08:37:48;16.30;88.90
45489;DHT22;31236;55.026;61.042;2023-09-12T08:40:18;16.40;88.50
45489;DHT22;31236;55.026;61.042;2023-09-12T08:42:51;16.60;88.40
45489;DHT22;31236;55.026;61.042;2023-09-12T08:45:22;16.60;88.30
45489;DHT22;31236;55.026;61.042;2023-09-12T08:48:12;16.50;88.40
45489;DHT22;31236;55.026;61.042;2023-09-12T08:50:43;16.50;88.30
45489;DHT22;31236;55.026;61.042;2023-09-12T08:53:13;16.40;88.40
45489;DHT22;31236;55.026;61.042;2023-09-12T08:55:45;16.40;88.50
45489;DHT22;31236;55.026;61.042;2023-09-12T08:58:15;16.40;88.50
45489;DHT22;31236;55.026;61.042;2023-09-12T09:00:46;16.60;88.30
45489;DHT22;31236;55.026;61.042;2023-09-12T09:03:16;16.60;88.00
45489;DHT22;31236;55.026;61.042;2023-09-12T09:05:49;16.70;87.60
45489;DHT22;31236;55.026;61.042;2023-09-12T09:09:00;16.70;87.40
45489;DHT22;31236;55.026;61.042;2023-09-12T09:11:32;16.60;87.20
45489;DHT22;31236;55.026;61.042;2023-09-12T09:14:03;16.60;87.30
45489;DHT22;31236;55.026;61.042;2023-09-12T09:16:33;16.60;87.20
45489;DHT22;31236;55.026;61.042;2023-09-12T09:19:04;16.80;87.20
45489;DHT22;31236;55.026;61.042;2023-09-12T09:21:36;16.90;86.80
45489;DHT22;31236;55.026;61.042;2023-09-12T09:24:26;16.80;86.30
45489;DHT22;31236;55.026;61.042;2023-09-12T09:26:56;16.70;86.30
45489;DHT22;31236;55.026;61.042;2023-09-12T09:29:28;16.60;86.60
45489;DHT22;31236;55.026;61.042;2023-09-12T09:32:18;16.70;86.50
45489;DHT22;31236;55.026;61.042;2023-09-12T09:34:49;16.80;86.40
45489;DHT22;31236;55.026;61.042;2023-09-12T09:37:20;16.80;86.20
45489;DHT22;31236;55.026;61.042;2023-09-12T09:39:50;16.80;86.40
45489;DHT22;31236;55.026;61.042;2023-09-12T09:42:22;16.90;86.30
45489;DHT22;31236;55.026;61.042;2023-09-12T09:44:53;17.00;86.00
45489;DHT22;31236;55.026;61.042;2023-09-12T09:47:24;17.10;85.60
45489;DHT22;31236;55.026;61.042;2023-09-12T09:49:54;17.10;85.10
45489;DHT22;31236;55.026;61.042;2023-09-12T09:52:27;17.20;85.00
45489;DHT22;31236;55.026;61.042;2023-09-12T09:54:57;17.20;84.80
45489;DHT22;31236;55.026;61.042;2023-09-12T09:57:28;17.20;84.70
45489;DHT22;31236;55.026;61.042;2023-09-12T09:59:58;17.30;84.80
45489;DHT22;31236;55.026;61.042;2023-09-12T10:02:29;17.40;84.60
45489;DHT22;31236;55.026;61.042;2023-09-12T10:04:59;17.40;84.30
45489;DHT22;31236;55.026;61.042;2023-09-12T10:07:51;17.30;84.30
45489;DHT22;31236;55.026;61.042;2023-09-12T10:10:24;17.20;84.00
45489;DHT22;31236;55.026;61.042;2023-09-12T10:15:45;17.30;84.20
45489;DHT22;31236;55.026;61.042;2023-09-12T10:18:18;17.40;83.30
45489;DHT22;31236;55.026;61.042;2023-09-12T10:23:56;17.50;83.20
45489;DHT22;31236;55.026;61.042;2023-09-12T10:25:56;17.40;83.20
45489;DHT22;31236;55.026;61.042;2023-09-12T10:28:27;17.30;83.10
45489;DHT22;31236;55.026;61.042;2023-09-12T10:30:58;17.30;82.90
45489;DHT22;31236;55.026;61.042;2023-09-12T10:33:28;17.40;82.90
45489;DHT22;31236;55.026;61.042;2023-09-12T10:35:59;17.40;82.70
45489;DHT22;31236;55.026;61.042;2023-09-12T10:38:32;17.30;82.50
45489;DHT22;31236;55.026;61.042;2023-09-12T10:41:03;17.40;82.60
45489;DHT22;31236;55.026;61.042;2023-09-12T10:43:35;17.40;82.10
45489;DHT22;31236;55.026;61.042;2023-09-12T10:46:05;17.40;82.20
45489;DHT22;31236;55.026;61.042;2023-09-12T11:25:03;17.10;80.70
45489;DHT22;31236;55.026;61.042;2023-09-12T11:27:43;17.10;80.50
45489;DHT22;31236;55.026;61.042;2023-09-12T11:30:06;16.90;81.10
45489;DHT22;31236;55.026;61.042;2023-09-12T11:32:37;16.90;81.50
45489;DHT22;31236;55.026;61.042;2023-09-12T11:35:08;17.00;81.60
45489;DHT22;31236;55.026;61.042;2023-09-12T11:37:38;17.00;81.20
45489;DHT22;31236;55.026;61.042;2023-09-12T11:43:36;17.10;81.30
45489;DHT22;31236;55.026;61.042;2023-09-12T11:46:08;17.10;80.70
45489;DHT22;31236;55.026;61.042;2023-09-12T11:48:39;17.20;80.60
45489;DHT22;31236;55.026;61.042;2023-09-12T11:51:09;17.20;80.30
45489;DHT22;31236;55.026;61.042;2023-09-12T11:53:40;17.20;80.60
45489;DHT22;31236;55.026;61.042;2023-09-12T11:56:10;17.10;80.60
45489;DHT22;31236;55.026;61.042;2023-09-12T11:58:40;17.00;80.90
45489;DHT22;31236;55.026;61.042;2023-09-12T12:01:12;16.90;80.90
45489;DHT22;31236;55.026;61.042;2023-09-12T12:03:43;16.90;81.10
45489;DHT22;31236;55.026;61.042;2023-09-12T12:06:14;16.90;81.20
45489;DHT22;31236;55.026;61.042;2023-09-12T12:08:44;16.90;81.10
45489;DHT22;31236;55.026;61.042;2023-09-12T12:11:15;16.90;81.00
45489;DHT22;31236;55.026;61.042;2023-09-12T12:13:45;16.90;80.80
45489;DHT22;31236;55.026;61.042;2023-09-12T12:16:17;16.90;80.80
45489;DHT22;31236;55.026;61.042;2023-09-12T12:18:47;16.90;80.60
45489;DHT22;31236;55.026;61.042;2023-09-12T12:21:18;16.90;80.70
45489;DHT22;31236;55.026;61.042;2023-09-12T12:23:57;16.90;80.70
45489;DHT22;31236;55.026;61.042;2023-09-12T12:26:21;17.00;81.00
45489;DHT22;31236;55.026;61.042;2023-09-12T12:28:51;16.90;81.10
45489;DHT22;31236;55.026;61.042;2023-09-12T12:31:22;16.80;81.20
45489;DHT22;31236;55.026;61.042;2023-09-12T12:33:54;16.80;81.40
45489;DHT22;31236;55.026;61.042;2023-09-12T12:36:24;16.70;81.50
45489;DHT22;31236;55.026;61.042;2023-09-12T12:38:55;16.70;81.60
45489;DHT22;31236;55.026;61.042;2023-09-12T12:41:45;16.60;81.70
45489;DHT22;31236;55.026;61.042;2023-09-12T12:44:15;16.60;82.00
45489;DHT22;31236;55.026;61.042;2023-09-12T12:47:05;16.60;81.90
45489;DHT22;31236;55.026;61.042;2023-09-12T12:49:55;16.60;81.90
45489;DHT22;31236;55.026;61.042;2023-09-12T12:52:25;16.60;82.00
45489;DHT22;31236;55.026;61.042;2023-09-12T12:55:03;16.50;82.20
45489;DHT22;31236;55.026;61.042;2023-09-12T12:57:28;16.50;82.30
45489;DHT22;31236;55.026;61.042;2023-09-12T12:59:59;16.40;82.60
45489;DHT22;31236;55.026;61.042;2023-09-12T13:02:30;16.40;82.90
45489;DHT22;31236;55.026;61.042;2023-09-12T13:05:01;16.40;83.00
45489;DHT22;31236;55.026;61.042;2023-09-12T13:07:34;16.30;83.00
45489;DHT22;31236;55.026;61.042;2023-09-12T13:10:43;16.30;82.90
45489;DHT22;31236;55.026;61.042;2023-09-12T13:13:13;16.10;82.90
45489;DHT22;31236;55.026;61.042;2023-09-12T13:15:43;16.10;83.30
45489;DHT22;31236;55.026;61.042;2023-09-12T13:18:13;16.10;83.50
45489;DHT22;31236;55.026;61.042;2023-09-12T13:20:44;16.00;83.60
45489;DHT22;31236;55.026;61.042;2023-09-12T13:23:14;16.00;83.70
45489;DHT22;31236;55.026;61.042;2023-09-12T13:25:44;15.90;83.80
45489;DHT22;31236;55.026;61.042;2023-09-12T13:28:14;15.90;84.00
45489;DHT22;31236;55.026;61.042;2023-09-12T13:30:45;15.90;84.00
45489;DHT22;31236;55.026;61.042;2023-09-12T13:36:25;15.70;84.40
45489;DHT22;31236;55.026;61.042;2023-09-12T13:39:15;15.60;84.30
45489;DHT22;31236;55.026;61.042;2023-09-12T13:41:45;15.60;84.70
45489;DHT22;31236;55.026;61.042;2023-09-12T13:50:57;15.30;85.20
45489;DHT22;31236;55.026;61.042;2023-09-12T13:53:27;15.20;85.60
45489;DHT22;31236;55.026;61.042;2023-09-12T13:55:58;15.10;85.90
45489;DHT22;31236;55.026;61.042;2023-09-12T14:04:30;14.90;86.10
45489;DHT22;31236;55.026;61.042;2023-09-12T14:13:41;14.80;86.50
45489;DHT22;31236;55.026;61.042;2023-09-12T14:19:41;14.60;87.00
45489;DHT22;31236;55.026;61.042;2023-09-12T14:25:23;14.50;87.60
45489;DHT22;31236;55.026;61.042;2023-09-12T14:27:53;14.40;87.60
45489;DHT22;31236;55.026;61.042;2023-09-12T14:30:23;14.20;88.00
45489;DHT22;31236;55.026;61.042;2023-09-12T14:32:55;14.10;88.50
45489;DHT22;31236;55.026;61.042;2023-09-12T14:35:25;14.00;88.90
45489;DHT22;31236;55.026;61.042;2023-09-12T14:37:55;14.00;89.10
45489;DHT22;31236;55.026;61.042;2023-09-12T14:40:27;13.90;89.20
45489;DHT22;31236;55.026;61.042;2023-09-12T14:42:57;13.90;89.20
45489;DHT22;31236;55.026;61.042;2023-09-12T14:48:39;13.80;89.60
45489;DHT22;31236;55.026;61.042;2023-09-12T14:51:12;13.70;89.70
45489;DHT22;31236;55.026;61.042;2023-09-12T14:53:42;13.60;90.00
45489;DHT22;31236;55.026;61.042;2023-09-12T14:56:14;13.60;90.00
45489;DHT22;31236;55.026;61.042;2023-09-12T14:58:44;13.60;90.10
45489;DHT22;31236;55.026;61.042;2023-09-12T15:01:14;13.60;90.10
45489;DHT22;31236;55.026;61.042;2023-09-12T15:03:44;13.60;90.20
45489;DHT22;31236;55.026;61.042;2023-09-12T15:06:15;13.50;90.20
45489;DHT22;31236;55.026;61.042;2023-09-12T15:08:45;13.50;90.30
45489;DHT22;31236;55.026;61.042;2023-09-12T15:11:15;13.50;90.30
45489;DHT22;31236;55.026;61.042;2023-09-12T15:13:46;13.40;90.40
45489;DHT22;31236;55.026;61.042;2023-09-12T15:16:16;13.40;90.40
45489;DHT22;31236;55.026;61.042;2023-09-12T15:18:46;13.30;90.50
45489;DHT22;31236;55.026;61.042;2023-09-12T15:21:16;13.20;90.60
45489;DHT22;31236;55.026;61.042;2023-09-12T15:23:46;13.10;90.70
45489;DHT22;31236;55.026;61.042;2023-09-12T15:26:16;13.10;90.90
45489;DHT22;31236;55.026;61.042;2023-09-12T15:31:37;13.00;90.90
45489;DHT22;31236;55.026;61.042;2023-09-12T15:34:08;13.00;91.00
45489;DHT22;31236;55.026;61.042;2023-09-12T15:40:26;13.00;91.00
45489;DHT22;31236;55.026;61.042;2023-09-12T15:42:57;13.00;90.80
45489;DHT22;31236;55.026;61.042;2023-09-12T15:45:27;13.00;90.90
45489;DHT22;31236;55.026;61.042;2023-09-12T15:47:56;13.00;91.00
45489;DHT22;31236;55.026;61.042;2023-09-12T15:50:27;13.00;91.00
45489;DHT22;31236;55.026;61.042;2023-09-12T15:52:57;12.90;91.10
45489;DHT22;31236;55.026;61.042;2023-09-12T15:55:28;12.90;91.20
45489;DHT22;31236;55.026;61.042;2023-09-12T15:57:58;12.80;91.30
45489;DHT22;31236;55.026;61.042;2023-09-12T16:00:28;12.70;91.30
45489;DHT22;31236;55.026;61.042;2023-09-12T16:02:59;12.70;91.40
45489;DHT22;31236;55.026;61.042;2023-09-12T16:05:37;12.70;91.50
45489;DHT22;31236;55.026;61.042;2023-09-12T16:08:45;12.70;91.50
45489;DHT22;31236;55.026;61.042;2023-09-12T16:11:15;12.70;91.40
45489;DHT22;31236;55.026;61.042;2023-09-12T16:13:46;12.70;91.50
45489;DHT22;31236;55.026;61.042;2023-09-12T16:19:46;12.60;91.50
45489;DHT22;31236;55.026;61.042;2023-09-12T16:22:17;12.60;91.50
45489;DHT22;31236;55.026;61.042;2023-09-12T16:24:47;12.60;91.70
45489;DHT22;31236;55.026;61.042;2023-09-12T16:33:19;12.50;91.50
45489;DHT22;31236;55.026;61.042;2023-09-12T16:35:50;12.50;91.70
45489;DHT22;31236;55.026;61.042;2023-09-12T16:40:54;12.50;91.90
45489;DHT22;31236;55.026;61.042;2023-09-12T16:43:25;12.50;92.00
45489;DHT22;31236;55.026;61.042;2023-09-12T16:45:55;12.40;92.00
45489;DHT22;31236;55.026;61.042;2023-09-12T16:48:25;12.50;92.10
45489;DHT22;31236;55.026;61.042;2023-09-12T16:50:57;12.50;92.10
45489;DHT22;31236;55.026;61.042;2023-09-12T16:53:28;12.50;92.00
45489;DHT22;31236;55.026;61.042;2023-09-12T16:55:57;12.50;92.00
45489;DHT22;31236;55.026;61.042;2023-09-12T16:58:29;12.50;92.30
45489;DHT22;31236;55.026;61.042;2023-09-12T17:01:03;12.50;92.10
45489;DHT22;31236;55.026;61.042;2023-09-12T17:03:33;12.40;92.20
45489;DHT22;31236;55.026;61.042;2023-09-12T17:06:03;12.30;92.20
45489;DHT22;31236;55.026;61.042;2023-09-12T17:08:34;12.40;92.30
45489;DHT22;31236;55.026;61.042;2023-09-12T17:11:04;12.30;92.30
45489;DHT22;31236;55.026;61.042;2023-09-12T17:13:35;12.30;92.40
45489;DHT22;31236;55.026;61.042;2023-09-12T17:16:06;12.20;92.40
45489;DHT22;31236;55.026;61.042;2023-09-12T17:18:39;12.30;92.50
45489;DHT22;31236;55.026;61.042;2023-09-12T17:21:09;12.20;92.80
45489;DHT22;31236;55.026;61.042;2023-09-12T17:23:39;12.20;92.60
45489;DHT22;31236;55.026;61.042;2023-09-12T17:26:10;12.20;92.60
45489;DHT22;31236;55.026;61.042;2023-09-12T17:28:40;12.20;92.70
45489;DHT22;31236;55.026;61.042;2023-09-12T17:31:11;12.20;92.70
45489;DHT22;31236;55.026;61.042;2023-09-12T17:33:42;12.20;92.70
45489;DHT22;31236;55.026;61.042;2023-09-12T17:36:12;12.10;92.80
45489;DHT22;31236;55.026;61.042;2023-09-12T17:38:45;12.10;92.70
45489;DHT22;31236;55.026;61.042;2023-09-12T17:41:16;12.10;92.80
45489;DHT22;31236;55.026;61.042;2023-09-12T17:43:46;12.10;92.80
45489;DHT22;31236;55.026;61.042;2023-09-12T17:46:18;12.10;92.90
45489;DHT22;31236;55.026;61.042;2023-09-12T17:48:48;12.00;92.90
45489;DHT22;31236;55.026;61.042;2023-09-12T17:51:19;12.00;93.00
45489;DHT22;31236;55.026;61.042;2023-09-12T17:53:50;12.00;93.00
45489;DHT22;31236;55.026;61.042;2023-09-12T17:56:20;12.00;93.00
45489;DHT22;31236;55.026;61.042;2023-09-12T18:08:17;11.90;92.90
45489;DHT22;31236;55.026;61.042;2023-09-12T18:10:51;11.80;92.90
45489;DHT22;31236;55.026;61.042;2023-09-12T18:47:42;11.30;93.40
45489;DHT22;31236;55.026;61.042;2023-09-12T18:56:36;11.20;93.60
45489;DHT22;31236;55.026;61.042;2023-09-12T18:59:06;11.30;93.60
45489;DHT22;31236;55.026;61.042;2023-09-12T19:01:36;11.30;93.70
45489;DHT22;31236;55.026;61.042;2023-09-12T19:04:27;11.30;93.80
45489;DHT22;31236;55.026;61.042;2023-09-12T19:07:00;11.40;93.80
45489;DHT22;31236;55.026;61.042;2023-09-12T19:09:31;11.40;93.80
45489;DHT22;31236;55.026;61.042;2023-09-12T19:12:03;11.50;93.80
45489;DHT22;31236;55.026;61.042;2023-09-12T19:14:33;11.50;93.80
45489;DHT22;31236;55.026;61.042;2023-09-12T19:17:03;11.50;93.80
45489;DHT22;31236;55.026;61.042;2023-09-12T19:19:33;11.50;93.80
45489;DHT22;31236;55.026;61.042;2023-09-12T19:22:04;11.50;93.90
45489;DHT22;31236;55.026;61.042;2023-09-12T19:24:33;11.50;93.90
45489;DHT22;31236;55.026;61.042;2023-09-12T19:27:04;11.60;94.00
45489;DHT22;31236;55.026;61.042;2023-09-12T19:29:53;11.60;94.00
45489;DHT22;31236;55.026;61.042;2023-09-12T19:32:24;11.50;94.00
45489;DHT22;31236;55.026;61.042;2023-09-12T19:34:57;11.50;94.00
45489;DHT22;31236;55.026;61.042;2023-09-12T19:37:29;11.60;94.10
45489;DHT22;31236;55.026;61.042;2023-09-12T19:39:59;11.50;94.10